createdAt,value
2023-05-18T00:02:08.558Z,12.37
2023-05-18T00:07:10.348Z,12.28
2023-05-18T00:12:13.366Z,12.18
2023-05-18T00:17:15.958Z,12.23
2023-05-18T00:22:20.708Z,12.15
2023-05-18T00:27:23.750Z,12.13
2023-05-18T00:32:25.567Z,11.98
2023-05-18T00:37:27.318Z,11.79
2023-05-18T00:42:30.626Z,11.79
2023-05-18T00:47:32.393Z,11.56
2023-05-18T00:52:34.259Z,11.41
2023-05-18T00:57:38.291Z,11.47
2023-05-18T01:02:45.546Z,11.48
2023-05-18T01:07:47.886Z,11.39
2023-05-18T01:12:53.774Z,11.22
2023-05-18T01:18:04.896Z,11.22
2023-05-18T01:23:14.939Z,10.94
2023-05-18T01:28:18.786Z,10.96
2023-05-18T01:33:21.239Z,10.91
2023-05-18T01:38:23.796Z,10.86
2023-05-18T01:43:28.439Z,11.01
2023-05-18T01:48:30.993Z,10.98
2023-05-18T01:53:35.471Z,10.93
2023-05-18T01:58:38.533Z,10.97
2023-05-18T02:03:40.524Z,10.85
2023-05-18T02:08:42.375Z,10.78
2023-05-18T02:13:45.419Z,10.78
2023-05-18T02:18:47.350Z,10.76
2023-05-18T02:23:49.290Z,10.58
2023-05-18T02:28:52.382Z,10.53
2023-05-18T02:33:54.138Z,10.32
2023-05-18T02:38:57.178Z,10.21
2023-05-18T02:44:01.211Z,10.05
2023-05-18T02:49:02.979Z,10.15
2023-05-18T02:54:04.852Z,10.18
2023-05-18T02:59:10.260Z,10.27
2023-05-18T03:04:16.882Z,10.19
2023-05-18T03:09:23.577Z,10.19
2023-05-18T03:14:29.784Z,10.13
2023-05-18T03:19:32.672Z,10.23
2023-05-18T03:24:40.587Z,10.04
2023-05-18T03:29:47.948Z,10.15
2023-05-18T03:34:51.117Z,10.10
2023-05-18T03:39:55.642Z,10.18
2023-05-18T03:44:58.860Z,9.94
2023-05-18T03:50:00.779Z,9.86
2023-05-18T03:55:02.861Z,9.84
2023-05-18T04:00:12.151Z,9.90
2023-05-18T04:05:19.537Z,9.96
2023-05-18T04:10:22.099Z,9.94
2023-05-18T04:15:25.170Z,9.99
2023-05-18T04:20:28.293Z,9.91
2023-05-18T04:25:30.450Z,9.89
2023-05-18T04:30:35.456Z,10.06
2023-05-18T04:35:37.213Z,10.06
2023-05-18T04:40:42.586Z,10.07
2023-05-18T04:45:46.599Z,10.04
2023-05-18T04:50:48.330Z,10.10
2023-05-18T04:55:50.112Z,10.32
2023-05-18T05:00:53.472Z,10.34
2023-05-18T05:05:55.384Z,10.49
2023-05-18T05:10:57.381Z,10.63
2023-05-18T05:16:00.530Z,10.84
2023-05-18T05:21:02.248Z,10.98
2023-05-18T05:26:04.564Z,11.13
2023-05-18T05:31:09.181Z,11.20
2023-05-18T05:36:11.622Z,11.62
2023-05-18T05:41:13.663Z,11.78
2023-05-18T05:46:17.278Z,11.66
2023-05-18T05:51:19.514Z,11.89
2023-05-18T05:56:21.388Z,12.18
2023-05-18T06:01:24.496Z,12.21
2023-05-18T06:06:26.315Z,12.56
2023-05-18T06:11:28.190Z,12.97
2023-05-18T06:16:31.314Z,13.18
2023-05-18T06:21:34.691Z,13.19
2023-05-18T06:26:37.970Z,13.20
2023-05-18T06:31:51.998Z,13.43
2023-05-18T06:37:07.522Z,13.62
2023-05-18T06:42:09.208Z,13.79
2023-05-18T06:47:17.525Z,14.00
2023-05-18T06:52:19.391Z,14.31
2023-05-18T06:57:21.533Z,14.44
2023-05-18T07:02:24.800Z,14.80
2023-05-18T07:07:26.916Z,14.96
2023-05-18T07:12:29.035Z,15.32
2023-05-18T07:17:32.241Z,15.59
2023-05-18T07:22:34.137Z,15.61
2023-05-18T07:27:35.956Z,15.68
2023-05-18T07:32:39.167Z,15.91
2023-05-18T07:37:41.051Z,16.24
2023-05-18T07:42:42.935Z,16.36
2023-05-18T07:47:46.326Z,16.98
2023-05-18T07:52:48.678Z,17.13
2023-05-18T07:57:50.893Z,17.72
2023-05-18T08:02:54.215Z,18.13
2023-05-18T08:07:56.034Z,18.71
2023-05-18T08:12:57.915Z,18.74
2023-05-18T08:18:01.016Z,19.45
2023-05-18T08:23:02.789Z,19.79
2023-05-18T08:28:04.749Z,20.34
2023-05-18T08:33:08.059Z,20.48
2023-05-18T08:38:09.971Z,20.62
2023-05-18T08:43:13.789Z,21.08
2023-05-18T08:48:17.233Z,21.35
2023-05-18T08:53:19.113Z,21.50
2023-05-18T08:58:22.624Z,21.98
2023-05-18T09:03:25.688Z,22.31
2023-05-18T09:08:28.539Z,22.41
2023-05-18T09:13:30.319Z,22.02
2023-05-18T09:18:33.443Z,22.06
2023-05-18T09:23:35.189Z,22.58
2023-05-18T09:28:38.224Z,22.30
2023-05-18T09:33:41.432Z,22.20
2023-05-18T09:38:45.710Z,22.19
2023-05-18T09:43:47.927Z,22.32
2023-05-18T09:48:52.695Z,22.69
2023-05-18T09:53:55.443Z,21.88
2023-05-18T09:58:57.826Z,21.87
2023-05-18T10:04:03.977Z,22.64
2023-05-18T10:09:06.122Z,22.64
2023-05-18T10:14:08.757Z,22.46
2023-05-18T10:19:11.862Z,22.21
2023-05-18T10:24:13.625Z,21.84
2023-05-18T10:29:15.346Z,21.88
2023-05-18T10:34:20.292Z,22.82
2023-05-18T10:39:22.224Z,22.89
2023-05-18T10:44:24.138Z,23.47
2023-05-18T10:49:27.228Z,23.28
2023-05-18T10:54:28.911Z,22.98
2023-05-18T10:59:30.646Z,23.18
2023-05-18T11:04:33.708Z,22.97
2023-05-18T11:09:35.382Z,22.96
2023-05-18T11:14:37.067Z,22.61
2023-05-18T11:19:40.022Z,22.77
2023-05-18T11:24:42.418Z,23.10
2023-05-18T11:29:45.141Z,23.14
2023-05-18T11:34:50.361Z,22.97
2023-05-18T11:40:00.110Z,22.87
2023-05-18T11:45:06.602Z,23.01
2023-05-18T11:50:11.670Z,23.02
2023-05-18T11:55:14.372Z,23.05
2023-05-18T12:00:17.021Z,22.96
2023-05-18T12:05:20.093Z,22.82
2023-05-18T12:10:21.896Z,22.90
2023-05-18T12:15:24.117Z,23.01
2023-05-18T12:20:31.106Z,23.10
2023-05-18T12:25:33.211Z,23.12
2023-05-18T12:30:35.979Z,23.27
2023-05-18T12:35:40.131Z,23.25
2023-05-18T12:40:48.734Z,23.52
2023-05-18T12:45:50.910Z,22.91
2023-05-18T12:50:55.473Z,23.03
2023-05-18T12:55:58.016Z,22.94
2023-05-18T13:00:59.685Z,23.10
2023-05-18T13:06:06.782Z,23.16
2023-05-18T13:11:14.647Z,23.26
2023-05-18T13:16:16.908Z,22.91
2023-05-18T13:21:19.972Z,22.88
2023-05-18T13:26:22.145Z,22.90
2023-05-18T13:31:23.914Z,22.61
2023-05-18T13:36:29.511Z,22.89
2023-05-18T13:41:31.143Z,22.90
2023-05-18T13:46:32.960Z,22.80
2023-05-18T13:51:36.271Z,23.27
2023-05-18T13:56:37.880Z,22.66
2023-05-18T14:01:42.180Z,22.87
2023-05-18T14:06:45.626Z,22.93
2023-05-18T14:11:47.298Z,23.01
2023-05-18T14:16:49.066Z,23.02
2023-05-18T14:21:52.101Z,22.81
2023-05-18T14:26:53.817Z,22.96
2023-05-18T14:31:55.544Z,23.17
2023-05-18T14:36:58.547Z,22.71
2023-05-18T14:42:00.282Z,22.82
2023-05-18T14:47:02.116Z,22.74
2023-05-18T14:52:05.864Z,22.47
2023-05-18T14:57:07.544Z,22.52
2023-05-18T15:02:09.337Z,22.31
2023-05-18T15:07:12.407Z,22.47
2023-05-18T15:12:14.116Z,22.40
2023-05-18T15:17:15.745Z,22.41
2023-05-18T15:22:18.696Z,22.33
2023-05-18T15:27:20.437Z,22.36
2023-05-18T15:32:22.139Z,22.39
2023-05-18T15:37:25.379Z,22.33
2023-05-18T15:42:27.060Z,22.29
2023-05-18T15:47:29.706Z,22.48
2023-05-18T15:52:32.791Z,22.50
2023-05-18T15:57:34.469Z,22.61
2023-05-18T16:02:37.465Z,22.58
2023-05-18T16:07:42.150Z,22.40
2023-05-18T16:12:43.757Z,22.36
2023-05-18T16:17:45.440Z,22.24
2023-05-18T16:22:49.221Z,21.96
2023-05-18T16:27:51.137Z,21.89
2023-05-18T16:32:52.994Z,21.79
2023-05-18T16:37:56.686Z,21.77
2023-05-18T16:42:58.366Z,21.77
2023-05-18T16:48:02.085Z,21.72
2023-05-18T16:53:05.123Z,21.73
2023-05-18T16:58:06.807Z,21.64
2023-05-18T17:03:08.483Z,21.62
2023-05-18T17:08:11.624Z,21.54
2023-05-18T17:13:13.248Z,21.49
2023-05-18T17:18:14.963Z,21.23
2023-05-18T17:23:18.762Z,20.98
2023-05-18T17:28:20.594Z,20.83
2023-05-18T17:33:22.240Z,20.88
2023-05-18T17:38:25.216Z,20.69
2023-05-18T17:43:26.857Z,20.65
2023-05-18T17:48:28.549Z,20.50
2023-05-18T17:53:31.533Z,20.52
2023-05-18T17:58:33.231Z,20.34
2023-05-18T18:03:34.968Z,20.35
2023-05-18T18:08:38.118Z,20.33
2023-05-18T18:13:39.904Z,20.24
2023-05-18T18:18:41.720Z,20.10
2023-05-18T18:23:44.952Z,20.07
2023-05-18T18:28:46.676Z,19.62
2023-05-18T18:33:50.660Z,19.62
2023-05-18T18:38:53.748Z,19.51
2023-05-18T18:43:57.084Z,19.40
2023-05-18T18:48:58.775Z,19.35
2023-05-18T18:54:01.782Z,19.25
2023-05-18T18:59:03.490Z,19.03
2023-05-18T19:04:05.338Z,18.94
2023-05-18T19:09:08.377Z,18.88
2023-05-18T19:14:10.073Z,18.98
2023-05-18T19:19:11.885Z,18.84
2023-05-18T19:24:15.192Z,18.73
2023-05-18T19:29:16.912Z,18.58
2023-05-18T19:34:18.735Z,18.66
2023-05-18T19:39:21.808Z,18.60
2023-05-18T19:44:23.504Z,18.56
2023-05-18T19:49:25.378Z,18.45
2023-05-18T19:54:28.447Z,18.42
2023-05-18T19:59:30.177Z,18.26
2023-05-18T20:04:33.417Z,17.95
2023-05-18T20:09:36.795Z,17.86
2023-05-18T20:14:39.170Z,17.77
2023-05-18T20:19:45.445Z,17.77
2023-05-18T20:24:48.888Z,17.55
2023-05-18T20:29:50.744Z,17.37
2023-05-18T20:34:52.527Z,17.50
2023-05-18T20:39:57.660Z,17.40
2023-05-18T20:44:59.419Z,17.21
2023-05-18T20:50:02.043Z,17.27
2023-05-18T20:55:05.838Z,17.14
2023-05-18T21:00:08.664Z,16.95
2023-05-18T21:05:10.539Z,16.84
2023-05-18T21:10:13.593Z,16.94
2023-05-18T21:15:15.586Z,16.83
2023-05-18T21:20:17.332Z,16.66
2023-05-18T21:25:20.784Z,16.37
2023-05-18T21:30:22.927Z,16.70
2023-05-18T21:35:24.890Z,16.50
2023-05-18T21:40:27.968Z,16.44
2023-05-18T21:45:29.750Z,16.17
2023-05-18T21:50:34.463Z,16.24
2023-05-18T21:55:38.157Z,16.21
2023-05-18T22:00:39.863Z,15.93
2023-05-18T22:05:44.588Z,16.07
2023-05-18T22:10:47.662Z,16.18
2023-05-18T22:15:49.362Z,16.17
2023-05-18T22:20:51.158Z,16.32
2023-05-18T22:25:54.228Z,16.25
2023-05-18T22:30:55.944Z,16.17
2023-05-18T22:35:57.830Z,16.00
2023-05-18T22:41:00.900Z,15.95
2023-05-18T22:46:03.100Z,15.92
2023-05-18T22:51:06.319Z,15.89
2023-05-18T22:56:09.449Z,15.91
2023-05-18T23:01:11.171Z,15.78
2023-05-18T23:06:13.979Z,15.58
2023-05-18T23:11:18.411Z,15.39
2023-05-18T23:16:20.591Z,15.51
2023-05-18T23:21:22.387Z,15.19
2023-05-18T23:26:25.480Z,15.28
2023-05-18T23:31:27.565Z,15.28
2023-05-18T23:36:30.504Z,15.31
2023-05-18T23:41:33.902Z,15.32
2023-05-18T23:46:36.292Z,15.30
2023-05-18T23:51:37.974Z,15.47
2023-05-18T23:56:41.713Z,15.57
